Terminal Aerodrome Forecast
Issued by NWS Twin Cities, MN

Home | Current Version | Previous Version | Graphics & Text | Print | Product List | Glossary On
Versions: 1 2 3 4 5 6 7 8 9 10 11 12 13 14 15 16 17 18 19
000
FTUS43 KMPX 211724
TAFSTC
TAF
KSTC 211724Z 2118/2218 VRB04KT P6SM VCTS SCT050 BKN090CB
     FM212100 02006KT P6SM BKN250
     FM220200 VRB02KT P6SM SCT250=

USA.gov is the U.S. government's official web portal to all federal, state and local government web resources and services.